Time;durP1;ratioP1;P1;durP2;ratioP2;P2;SDS_P1;SDS_P2;PMS_P1;PMS_P2;Temp;Humidity;BMP_temperature;BMP_pressure;BME280_temperature;BME280_humidity;BME280_pressure;Samples;Min_cycle;Max_cycle;Signal;HPM_P1;HPM_P2
2022/03/15 00:00:31;;;;;;;66.68;29.00;;;;;;;3.77;33.49;99957.69;5068374;28;20382;-64
2022/03/15 00:02:57;;;;;;;51.70;23.92;;;;;;;3.76;33.55;99963.31;5065195;28;20460;-64
2022/03/15 00:05:22;;;;;;;48.38;23.67;;;;;;;3.73;33.63;99970.84;5068162;28;20123;-63
2022/03/15 00:07:49;;;;;;;47.28;23.42;;;;;;;3.70;33.05;99970.44;5067827;28;20031;-63
2022/03/15 00:10:15;;;;;;;47.88;23.00;;;;;;;3.65;34.12;99976.53;5068440;28;20105;-64
2022/03/15 00:12:43;;;;;;;49.78;22.70;;;;;;;3.62;33.67;99960.66;5066665;28;20009;-64
2022/03/15 00:15:09;;;;;;;51.13;22.00;;;;;;;3.62;34.38;99955.25;5067798;28;20032;-65
2022/03/15 00:17:35;;;;;;;51.05;22.20;;;;;;;3.63;33.80;99948.78;5067762;28;20384;-64
2022/03/15 00:20:07;;;;;;;55.33;23.70;;;;;;;3.62;34.34;99946.25;5070794;28;20035;-64
2022/03/15 00:22:37;;;;;;;49.42;22.38;;;;;;;3.62;34.10;99946.25;5070341;28;20128;-63
2022/03/15 00:25:05;;;;;;;57.15;25.33;;;;;;;3.62;33.58;99951.69;5070954;28;21313;-64
2022/03/15 00:27:35;;;;;;;57.80;25.52;;;;;;;3.60;33.63;99957.34;5070786;28;20028;-64
2022/03/15 00:30:03;;;;;;;63.60;25.52;;;;;;;3.56;34.52;99956.09;5071122;28;20017;-64
2022/03/15 00:32:28;;;;;;;50.90;24.20;;;;;;;3.52;33.80;99950.25;5070551;28;20025;-64
2022/03/15 00:34:53;;;;;;;48.33;23.40;;;;;;;3.49;34.26;99947.13;5071083;28;20477;-63
2022/03/15 00:37:20;;;;;;;48.30;24.75;;;;;;;3.46;33.69;99940.25;5071967;28;20032;-64
2022/03/15 00:39:47;;;;;;;49.78;24.05;;;;;;;3.43;33.79;99938.78;5071093;28;20024;-63
2022/03/15 00:42:12;;;;;;;52.13;24.92;;;;;;;3.36;33.77;99937.16;5070739;28;20032;-63
2022/03/15 00:44:39;;;;;;;54.72;25.35;;;;;;;3.31;34.35;99936.94;5070882;28;20534;-63
2022/03/15 00:47:05;;;;;;;54.15;24.90;;;;;;;3.23;34.59;99935.31;5070866;28;20020;-64
2022/03/15 00:49:31;;;;;;;54.90;24.17;;;;;;;3.15;34.50;99938.22;5069505;28;20074;-64
2022/03/15 00:51:56;;;;;;;55.45;25.55;;;;;;;3.06;34.54;99935.75;5069765;28;20032;-64
2022/03/15 00:54:22;;;;;;;47.63;22.95;;;;;;;2.96;34.44;99938.88;5070187;28;20045;-64
2022/03/15 00:56:48;;;;;;;48.47;22.55;;;;;;;2.86;34.72;99941.16;5070076;28;20035;-64
2022/03/15 00:59:13;;;;;;;49.95;23.77;;;;;;;2.78;34.96;99949.50;5067684;28;20369;-64
2022/03/15 01:01:39;;;;;;;54.00;23.95;;;;;;;2.73;34.46;99952.84;5070092;28;20024;-64
2022/03/15 01:04:04;;;;;;;50.72;24.52;;;;;;;2.71;35.54;99944.09;5070656;28;20027;-64
2022/03/15 01:06:30;;;;;;;50.33;25.00;;;;;;;2.67;35.19;99946.38;5070120;28;20040;-64
2022/03/15 01:08:55;;;;;;;60.88;27.48;;;;;;;2.66;35.29;99933.03;5070656;28;20029;-64
2022/03/15 01:11:21;;;;;;;60.38;26.73;;;;;;;2.65;35.30;99931.38;5069332;28;20100;-63
2022/03/15 01:13:46;;;;;;;59.45;25.30;;;;;;;2.66;35.59;99933.03;5069038;28;20024;-64
2022/03/15 01:16:12;;;;;;;59.38;24.65;;;;;;;2.65;35.75;99932.19;5070158;28;20032;-63
2022/03/15 01:18:38;;;;;;;57.80;24.73;;;;;;;2.65;35.93;99932.19;5070485;28;20029;-63
2022/03/15 01:21:04;;;;;;;49.97;23.00;;;;;;;2.65;35.68;99929.47;5070033;28;20519;-63
2022/03/15 01:23:30;;;;;;;50.70;23.27;;;;;;;2.66;36.03;99931.16;5069465;28;20032;-64
2022/03/15 01:25:56;;;;;;;52.85;23.17;;;;;;;2.64;35.65;99935.13;5070273;28;20024;-64
2022/03/15 01:28:22;;;;;;;48.05;21.88;;;;;;;2.59;35.54;99927.63;5069831;28;20035;-64
2022/03/15 01:30:48;;;;;;;47.13;24.50;;;;;;;2.58;36.01;99930.53;5070118;28;20085;-63
2022/03/15 01:33:13;;;;;;;52.75;23.58;;;;;;;2.62;35.65;99929.94;5070580;28;20044;-64
2022/03/15 01:35:40;;;;;;;48.05;20.48;;;;;;;2.70;35.81;99928.88;5070031;28;20116;-64
2022/03/15 01:38:06;;;;;;;47.85;20.67;;;;;;;2.70;35.67;99931.59;5070823;28;20031;-64
2022/03/15 01:40:31;;;;;;;47.05;21.23;;;;;;;2.70;35.69;99938.88;5070346;28;20017;-63
2022/03/15 01:42:57;;;;;;;50.58;22.35;;;;;;;2.65;35.83;99940.31;5069866;28;20048;-64
2022/03/15 01:45:39;;;;;;;47.35;21.67;;;;;;;2.63;36.30;99945.13;5069802;28;20021;-63
2022/03/15 01:48:09;;;;;;;48.65;21.00;;;;;;;2.62;36.16;99942.63;5069785;28;20031;-64
2022/03/15 01:50:36;;;;;;;48.30;21.58;;;;;;;2.59;36.06;99949.31;5069758;28;20370;-64
2022/03/15 01:53:03;;;;;;;47.53;21.27;;;;;;;2.52;36.17;99940.31;5069357;28;20113;-64
2022/03/15 01:55:28;;;;;;;46.33;21.63;;;;;;;2.42;36.68;99943.44;5067887;28;20059;-64
2022/03/15 01:57:54;;;;;;;46.63;19.73;;;;;;;2.34;36.71;99940.94;5071294;28;20380;-64
2022/03/15 02:00:20;;;;;;;49.28;20.80;;;;;;;2.26;36.13;99936.53;5069800;28;20166;-64
2022/03/15 02:02:46;;;;;;;49.78;22.10;;;;;;;2.17;36.71;99938.59;5068890;28;20032;-63
2022/03/15 02:05:12;;;;;;;48.95;22.52;;;;;;;2.14;36.43;99947.13;5069300;28;20035;-63
2022/03/15 02:07:38;;;;;;;54.10;25.00;;;;;;;2.13;36.49;99936.50;5067557;28;20050;-63
2022/03/15 02:10:06;;;;;;;59.55;24.75;;;;;;;2.16;36.83;99939.63;5069241;28;20368;-64
2022/03/15 02:12:32;;;;;;;59.10;25.35;;;;;;;2.14;36.33;99935.47;5068808;28;20508;-63
2022/03/15 02:15:01;;;;;;;55.33;24.85;;;;;;;2.19;36.92;99935.69;5069252;28;20111;-63
2022/03/15 02:17:27;;;;;;;54.00;25.67;;;;;;;2.23;37.12;99945.09;5065755;28;20020;-64
2022/03/15 02:19:53;;;;;;;59.67;31.55;;;;;;;2.16;36.74;99938.81;5067930;28;20511;-63
2022/03/15 02:22:19;;;;;;;59.10;29.77;;;;;;;2.14;36.81;99930.06;5068174;28;20029;-63
2022/03/15 02:24:45;;;;;;;58.30;23.50;;;;;;;2.18;36.75;99947.56;5068890;28;20404;-64
2022/03/15 02:27:11;;;;;;;55.60;24.80;;;;;;;2.19;37.34;99946.53;5066932;28;20040;-63
2022/03/15 02:29:36;;;;;;;57.78;23.75;;;;;;;2.21;36.95;99936.31;5066990;28;20106;-63
2022/03/15 02:32:02;;;;;;;59.17;24.42;;;;;;;2.25;37.34;99936.75;5069043;28;20028;-64
2022/03/15 02:34:27;;;;;;;48.20;22.27;;;;;;;2.26;36.22;99944.63;5068857;28;20103;-64
2022/03/15 02:36:53;;;;;;;57.13;23.60;;;;;;;2.19;36.86;99938.41;5069005;28;20032;-64
2022/03/15 02:39:18;;;;;;;51.70;23.60;;;;;;;2.12;37.51;99938.38;5067508;28;20024;-64
2022/03/15 02:41:44;;;;;;;50.33;25.27;;;;;;;2.05;37.45;99938.34;5067018;28;20113;-64
2022/03/15 02:44:10;;;;;;;59.38;26.08;;;;;;;2.01;37.29;99936.28;5068716;28;20070;-64
2022/03/15 02:46:39;;;;;;;56.67;23.98;;;;;;;2.00;37.81;99934.59;5069134;28;20061;-64
2022/03/15 02:49:04;;;;;;;49.57;24.43;;;;;;;1.99;37.87;99933.75;5069766;28;20499;-65
2022/03/15 02:51:31;;;;;;;57.63;25.52;;;;;;;1.97;37.88;99935.81;5069935;28;20029;-64
2022/03/15 02:53:57;;;;;;;46.45;21.48;;;;;;;1.97;38.49;99941.25;5069784;28;20075;-64
2022/03/15 02:56:23;;;;;;;44.47;21.33;;;;;;;1.99;38.21;99933.75;5069501;28;20040;-63
2022/03/15 02:58:48;;;;;;;44.53;21.00;;;;;;;2.01;38.30;99931.69;5069598;28;20025;-64
2022/03/15 03:01:14;;;;;;;42.17;20.08;;;;;;;2.05;38.42;99934.81;5070264;28;20032;-64
2022/03/15 03:03:40;;;;;;;42.53;20.90;;;;;;;2.05;38.45;99937.50;5068505;28;20021;-64
2022/03/15 03:06:05;;;;;;;41.97;19.92;;;;;;;2.05;38.40;99937.50;5069217;28;20119;-64
2022/03/15 03:08:32;;;;;;;44.00;20.48;;;;;;;2.03;38.46;99943.13;5068300;28;20029;-64
2022/03/15 03:10:58;;;;;;;41.70;18.52;;;;;;;1.99;38.43;99941.88;5064862;28;20032;-64
2022/03/15 03:13:27;;;;;;;41.97;19.98;;;;;;;1.97;38.67;99946.66;5066901;28;20028;-64
2022/03/15 03:15:58;;;;;;;40.47;18.73;;;;;;;1.99;38.64;99949.16;5067170;28;20032;-64
2022/03/15 03:18:36;;;;;;;37.50;18.58;;;;;;;1.98;38.58;99942.09;5068807;28;20032;-64
2022/03/15 03:21:04;;;;;;;44.00;21.92;;;;;;;2.01;38.56;99941.69;5067788;28;20464;-64
2022/03/15 03:23:33;;;;;;;39.92;19.02;;;;;;;2.00;39.12;99940.84;5068637;28;20032;-64
2022/03/15 03:25:59;;;;;;;34.75;17.40;;;;;;;2.00;38.80;99940.84;5070842;28;20025;-64
2022/03/15 03:28:27;;;;;;;33.90;17.30;;;;;;;2.02;39.35;99948.75;5069881;28;20491;-64
2022/03/15 03:30:53;;;;;;;40.30;19.25;;;;;;;2.01;38.83;99941.69;5066224;28;20078;-64
2022/03/15 03:33:19;;;;;;;37.38;18.23;;;;;;;2.00;39.31;99945.44;5069469;28;20028;-64
2022/03/15 03:35:45;;;;;;;34.92;17.88;;;;;;;2.00;38.87;99951.66;5069563;28;20048;-64
2022/03/15 03:38:12;;;;;;;35.17;18.13;;;;;;;2.00;39.06;99948.13;5069403;28;20060;-64
2022/03/15 03:40:37;;;;;;;36.97;17.88;;;;;;;1.97;38.79;99949.34;5069413;28;20487;-64
2022/03/15 03:43:04;;;;;;;33.65;17.58;;;;;;;1.99;39.18;99954.59;5068951;28;20055;-64
2022/03/15 03:45:29;;;;;;;33.53;17.85;;;;;;;1.97;39.35;99954.78;5069571;28;20035;-65
2022/03/15 03:47:55;;;;;;;36.83;18.45;;;;;;;1.98;39.49;99951.03;5068804;28;20016;-65
2022/03/15 03:50:20;;;;;;;34.58;16.75;;;;;;;1.99;39.35;99952.69;5069430;28;20060;-64
2022/03/15 03:52:46;;;;;;;35.00;17.77;;;;;;;1.99;40.01;99950.00;5069146;28;20032;-65
2022/03/15 03:55:11;;;;;;;33.55;17.92;;;;;;;1.99;39.74;99947.28;5071610;28;20800;-65
2022/03/15 03:57:37;;;;;;;34.35;16.65;;;;;;;2.01;39.48;99952.50;5071455;28;20103;-65
2022/03/15 04:00:06;;;;;;;34.58;15.75;;;;;;;2.02;39.37;99946.06;5072630;28;20730;-64
2022/03/15 04:02:31;;;;;;;32.40;14.93;;;;;;;2.04;39.55;99941.25;5068641;28;20036;-65
2022/03/15 04:04:57;;;;;;;33.08;15.82;;;;;;;2.07;39.90;99943.56;5072221;28;20504;-64
2022/03/15 04:07:22;;;;;;;31.38;15.48;;;;;;;2.10;39.33;99951.25;5068516;28;20031;-65
2022/03/15 04:09:48;;;;;;;30.20;16.35;;;;;;;2.12;39.34;99948.38;5073010;28;20024;-64
2022/03/15 04:12:14;;;;;;;27.92;14.23;;;;;;;2.16;38.99;99947.75;5071203;28;20589;-65
2022/03/15 04:14:39;;;;;;;28.60;14.70;;;;;;;2.19;39.49;99949.22;5069416;28;20033;-64
2022/03/15 04:17:07;;;;;;;32.35;15.65;;;;;;;2.20;39.48;99949.00;5071447;28;20052;-65
2022/03/15 04:19:32;;;;;;;29.42;15.18;;;;;;;2.22;39.35;99955.06;5069051;28;20020;-64
2022/03/15 04:21:59;;;;;;;28.33;14.32;;;;;;;2.22;39.12;99955.06;5073505;28;20589;-65
2022/03/15 04:24:25;;;;;;;25.65;14.23;;;;;;;2.21;39.64;99947.97;5071619;28;20029;-64
2022/03/15 04:26:51;;;;;;;33.47;14.40;;;;;;;2.23;39.08;99950.50;5069544;28;20496;-64
2022/03/15 04:29:17;;;;;;;29.65;15.35;;;;;;;2.24;38.93;99946.75;5072140;28;20036;-64
2022/03/15 04:31:42;;;;;;;26.60;13.85;;;;;;;2.25;39.11;99947.56;5070698;28;20024;-64
2022/03/15 04:34:08;;;;;;;24.55;13.02;;;;;;;2.26;39.40;99943.81;5070303;28;20021;-64
2022/03/15 04:36:35;;;;;;;30.65;13.55;;;;;;;2.27;39.26;99950.91;5070335;28;20409;-64
2022/03/15 04:39:01;;;;;;;30.33;14.13;;;;;;;2.28;39.48;99947.16;5070894;28;20058;-64
2022/03/15 04:41:26;;;;;;;31.17;13.60;;;;;;;2.27;39.81;99957.13;5069121;28;21431;-64
2022/03/15 04:43:52;;;;;;;30.55;15.32;;;;;;;2.30;39.23;99953.22;5071915;28;20028;-64
2022/03/15 04:46:17;;;;;;;27.70;14.07;;;;;;;2.32;39.30;99951.94;5068941;28;20044;-64
2022/03/15 04:48:43;;;;;;;31.73;15.48;;;;;;;2.34;39.45;99962.59;5069047;28;20073;-64
2022/03/15 04:51:09;;;;;;;28.90;14.55;;;;;;;2.36;39.70;99955.09;5072189;28;20031;-64
2022/03/15 04:53:35;;;;;;;28.65;14.48;;;;;;;2.37;39.06;99954.88;5068499;28;20048;-64
2022/03/15 04:56:01;;;;;;;30.58;14.95;;;;;;;2.41;39.54;99968.00;5071352;28;20040;-63
2022/03/15 04:58:27;;;;;;;25.95;13.18;;;;;;;2.42;39.42;99967.81;5070167;28;20708;-63
2022/03/15 05:00:52;;;;;;;29.27;14.30;;;;;;;2.45;39.59;99971.97;5071195;28;20033;-64
2022/03/15 05:03:18;;;;;;;30.00;14.40;;;;;;;2.47;39.00;99959.06;5070317;28;20032;-63
2022/03/15 05:05:44;;;;;;;26.38;13.63;;;;;;;2.49;38.85;99965.13;5071001;28;20028;-64
2022/03/15 05:08:10;;;;;;;31.08;14.10;;;;;;;2.50;39.36;99966.78;5070081;28;20031;-63
2022/03/15 05:13:20;;;;;;;32.55;15.07;;;;;;;2.55;39.44;99963.44;5069858;28;20093;-64
2022/03/15 05:15:46;;;;;;;33.17;14.88;;;;;;;2.53;38.91;99964.47;5071118;28;20498;-64
2022/03/15 05:18:12;;;;;;;26.73;14.00;;;;;;;2.56;38.96;99962.41;5066986;28;20020;-64
2022/03/15 05:20:37;;;;;;;30.67;15.23;;;;;;;2.56;39.51;99968.66;5071186;28;20036;-64
2022/03/15 05:23:02;;;;;;;31.30;16.10;;;;;;;2.55;39.48;99963.44;5074491;28;20078;-63
2022/03/15 05:25:28;;;;;;;34.05;17.20;;;;;;;2.50;39.52;99970.31;5071525;28;20054;-64
2022/03/15 05:27:54;;;;;;;36.25;17.52;;;;;;;2.47;39.48;99972.59;5072902;28;20036;-63
2022/03/15 05:30:19;;;;;;;50.17;24.05;;;;;;;2.45;39.20;99969.28;5072802;28;20032;-63
2022/03/15 05:32:45;;;;;;;51.28;25.08;;;;;;;2.45;39.23;99961.97;5072721;28;20029;-64
2022/03/15 05:35:10;;;;;;;45.13;21.80;;;;;;;2.46;39.55;99969.06;5066342;28;20039;-64
2022/03/15 05:37:36;;;;;;;37.05;18.88;;;;;;;2.48;39.32;99974.28;5067163;28;20031;-63
2022/03/15 05:40:01;;;;;;;37.53;16.55;;;;;;;2.51;39.51;99965.75;5070944;28;20039;-64
2022/03/15 05:42:27;;;;;;;42.30;19.25;;;;;;;2.54;39.43;99968.03;5071520;28;20036;-63
2022/03/15 05:44:52;;;;;;;38.35;19.38;;;;;;;2.57;39.57;99967.63;5072585;28;20105;-63
2022/03/15 05:47:18;;;;;;;39.92;19.77;;;;;;;2.62;39.87;99957.00;5071286;28;20032;-64
2022/03/15 05:49:44;;;;;;;44.92;25.88;;;;;;;2.70;40.05;99955.13;5064854;28;20029;-63
2022/03/15 05:52:09;;;;;;;55.90;29.30;;;;;;;2.78;39.95;99958.47;5069436;28;20032;-64
2022/03/15 05:54:35;;;;;;;59.92;26.08;;;;;;;2.87;39.87;99956.38;5072107;28;20455;-64
2022/03/15 05:57:01;;;;;;;62.22;25.30;;;;;;;2.97;39.17;99953.25;5069060;28;20370;-64
2022/03/15 05:59:26;;;;;;;57.58;25.60;;;;;;;3.05;39.16;99949.50;5070172;28;20396;-65
2022/03/15 06:01:52;;;;;;;55.95;28.00;;;;;;;3.17;39.17;99947.00;5071130;28;20060;-64
2022/03/15 06:04:17;;;;;;;38.78;21.33;;;;;;;3.24;39.10;99945.09;5069755;28;20060;-64
2022/03/15 06:06:43;;;;;;;36.03;20.50;;;;;;;3.34;38.97;99939.25;5068958;28;20033;-64
2022/03/15 06:09:08;;;;;;;38.50;21.42;;;;;;;3.42;39.59;99939.84;5070347;28;20098;-63
2022/03/15 06:11:34;;;;;;;41.10;20.20;;;;;;;3.52;39.56;99936.66;5070673;28;20044;-63
2022/03/15 06:14:00;;;;;;;41.78;21.65;;;;;;;3.60;39.28;99932.06;5071469;28;20691;-64
2022/03/15 06:16:26;;;;;;;43.97;21.50;;;;;;;3.69;38.92;99942.47;5066987;28;20533;-64
2022/03/15 06:18:51;;;;;;;45.22;22.55;;;;;;;3.77;39.09;99944.13;5069966;28;20029;-64
2022/03/15 06:21:17;;;;;;;39.05;20.65;;;;;;;3.85;38.64;99946.59;5069940;28;20029;-64
2022/03/15 06:23:43;;;;;;;38.50;18.88;;;;;;;3.94;38.75;99940.91;5070539;28;20052;-64
2022/03/15 06:26:09;;;;;;;33.78;18.65;;;;;;;4.04;38.54;99946.72;5070767;28;20116;-64
2022/03/15 06:28:35;;;;;;;29.55;16.05;;;;;;;4.17;38.64;99949.38;5068491;28;20025;-64
2022/03/15 06:31:02;;;;;;;31.02;15.18;;;;;;;4.27;38.95;99948.88;5069588;28;20036;-64
2022/03/15 06:33:27;;;;;;;29.45;16.48;;;;;;;4.37;38.10;99956.53;5071474;28;20048;-64
2022/03/15 06:35:53;;;;;;;37.85;19.40;;;;;;;4.49;38.48;99955.84;5070558;28;20032;-64
2022/03/15 06:38:18;;;;;;;29.90;15.48;;;;;;;4.59;38.35;99956.22;5070264;28;20490;-65
2022/03/15 06:40:44;;;;;;;31.27;16.30;;;;;;;4.72;37.84;99947.94;5070992;28;20097;-64
2022/03/15 06:43:12;;;;;;;32.30;16.88;;;;;;;4.83;37.88;99948.28;5070679;28;20059;-63
2022/03/15 06:45:38;;;;;;;36.10;18.25;;;;;;;4.92;38.00;99947.78;5068842;28;20387;-64
2022/03/15 06:48:04;;;;;;;39.00;18.35;;;;;;;5.04;37.82;99942.47;5070214;28;20024;-64
2022/03/15 06:50:30;;;;;;;39.90;18.42;;;;;;;5.15;37.90;99942.78;5069728;28;20047;-64
2022/03/15 06:52:55;;;;;;;38.17;19.00;;;;;;;5.24;37.43;99937.91;5069623;28;20107;-64
2022/03/15 06:55:21;;;;;;;38.08;17.33;;;;;;;5.30;37.71;99940.53;5069584;28;20403;-64
2022/03/15 06:57:46;;;;;;;39.08;19.25;;;;;;;5.38;37.07;99944.03;5070391;28;20024;-64
2022/03/15 07:00:14;;;;;;;41.63;19.20;;;;;;;5.44;36.91;99940.41;5070954;28;20179;-64
2022/03/15 07:02:39;;;;;;;45.17;20.83;;;;;;;5.54;37.35;99945.31;5070619;28;20028;-64
2022/03/15 07:05:05;;;;;;;38.97;18.38;;;;;;;5.62;37.13;99943.13;5071107;28;21300;-64
2022/03/15 07:07:31;;;;;;;41.70;18.70;;;;;;;5.70;36.88;99943.88;5068595;28;20083;-65
2022/03/15 07:09:56;;;;;;;38.90;19.83;;;;;;;5.79;36.70;99942.53;5063149;28;20393;-64
2022/03/15 07:12:24;;;;;;;35.58;18.55;;;;;;;5.88;36.61;99949.34;5072971;28;20534;-64
2022/03/15 07:14:49;;;;;;;42.28;18.83;;;;;;;5.95;36.71;99944.59;5069943;28;20028;-64
2022/03/15 07:17:16;;;;;;;36.22;17.83;;;;;;;6.07;36.50;99949.31;5068541;28;20028;-64
2022/03/15 07:19:42;;;;;;;37.78;18.23;;;;;;;6.15;36.79;99951.72;5066088;28;20036;-64
2022/03/15 07:22:07;;;;;;;35.30;17.50;;;;;;;6.23;36.70;99951.41;5069776;28;20107;-64
2022/03/15 07:24:33;;;;;;;35.42;17.92;;;;;;;6.33;36.61;99952.75;5071869;28;20016;-64
2022/03/15 07:27:00;;;;;;;39.03;18.70;;;;;;;6.43;36.56;99949.47;5067177;28;20492;-64
2022/03/15 07:29:26;;;;;;;33.83;16.92;;;;;;;6.53;35.98;99963.34;5073912;28;20396;-64
2022/03/15 07:31:51;;;;;;;36.95;18.20;;;;;;;6.59;35.95;99956.97;5073685;28;20070;-65
2022/03/15 07:34:17;;;;;;;37.75;18.02;;;;;;;6.64;35.59;99951.66;5075115;28;20040;-64
2022/03/15 07:36:43;;;;;;;39.38;19.23;;;;;;;6.71;35.37;99957.03;5073294;28;20063;-64
2022/03/15 07:39:08;;;;;;;40.63;19.40;;;;;;;6.79;35.65;99950.38;5071443;28;20058;-65
2022/03/15 07:41:38;;;;;;;35.63;16.88;;;;;;;6.84;35.30;99950.53;5070213;28;20048;-66
2022/03/15 07:44:05;;;;;;;38.25;19.35;;;;;;;6.91;35.29;99947.69;5072966;28;20032;-65
2022/03/15 07:46:30;;;;;;;35.47;17.63;;;;;;;6.98;35.22;99945.69;5074309;28;20033;-64
2022/03/15 07:48:56;;;;;;;44.92;20.63;;;;;;;7.07;35.46;99943.41;5071536;28;20054;-64
2022/03/15 07:51:21;;;;;;;33.38;17.15;;;;;;;7.18;35.73;99936.28;5072223;28;20389;-63
2022/03/15 07:53:46;;;;;;;38.78;17.10;;;;;;;7.32;35.54;99934.19;5072774;28;20040;-66
2022/03/15 07:56:12;;;;;;;38.58;17.52;;;;;;;7.43;35.62;99928.72;5072496;28;20083;-65
2022/03/15 07:58:37;;;;;;;36.47;18.05;;;;;;;7.57;35.58;99925.69;5071486;28;20025;-65
2022/03/15 08:01:04;;;;;;;32.47;16.23;;;;;;;7.71;35.19;99920.81;5072861;28;20039;-66
2022/03/15 08:03:29;;;;;;;35.03;17.75;;;;;;;7.79;34.63;99914.16;5071128;28;20056;-68
2022/03/15 08:05:55;;;;;;;30.50;15.20;;;;;;;7.90;35.06;99919.56;5072925;28;20516;-67
2022/03/15 08:08:20;;;;;;;30.55;15.38;;;;;;;8.01;34.79;99915.13;5071472;28;20085;-66
2022/03/15 08:10:46;;;;;;;29.75;14.50;;;;;;;8.08;34.58;99917.75;5071624;28;20085;-65
2022/03/15 08:13:11;;;;;;;30.42;15.40;;;;;;;8.15;33.91;99904.72;5072846;28;20468;-67
2022/03/15 08:15:37;;;;;;;29.70;15.02;;;;;;;8.25;34.06;99909.59;5071583;28;20506;-66
2022/03/15 08:18:03;;;;;;;28.08;15.07;;;;;;;8.34;34.33;99899.91;5071305;28;20025;-65
2022/03/15 08:20:39;;;;;;;24.17;13.00;;;;;;;8.49;34.53;99904.00;5071348;28;20036;-65
2022/03/15 08:23:05;;;;;;;25.40;14.10;;;;;;;8.59;34.19;99900.59;5072298;28;20021;-65
2022/03/15 08:25:31;;;;;;;23.42;12.27;;;;;;;8.68;34.37;99899.13;5072611;28;20143;-66
2022/03/15 08:27:57;;;;;;;26.67;12.55;;;;;;;8.78;33.40;99901.19;5072245;28;20167;-65
2022/03/15 08:30:23;;;;;;;20.45;11.55;;;;;;;8.83;33.60;99889.53;5072702;28;20501;-66
2022/03/15 08:32:48;;;;;;;26.80;13.40;;;;;;;8.91;33.80;99891.84;5072144;28;20472;-66
2022/03/15 08:35:14;;;;;;;23.83;13.70;;;;;;;8.99;33.53;99887.84;5072981;28;20029;-66
2022/03/15 08:37:42;;;;;;;22.80;12.45;;;;;;;9.04;34.05;99882.47;5072616;28;20032;-65
2022/03/15 08:40:08;;;;;;;18.80;10.68;;;;;;;9.12;34.42;99875.72;5071906;28;20032;-67
2022/03/15 08:42:34;;;;;;;23.05;12.25;;;;;;;9.20;34.04;99878.03;5072360;28;20063;-67
2022/03/15 08:45:00;;;;;;;23.33;12.82;;;;;;;9.34;33.83;99873.84;5073097;28;20063;-66
2022/03/15 08:47:25;;;;;;;19.55;11.50;;;;;;;9.47;33.57;99869.91;5073057;28;20108;-66
2022/03/15 08:49:51;;;;;;;20.35;11.75;;;;;;;9.60;34.51;99870.59;5073630;28;20036;-67
2022/03/15 08:52:17;;;;;;;19.30;11.07;;;;;;;9.71;34.15;99861.44;5071908;28;20020;-66
2022/03/15 08:54:43;;;;;;;19.60;11.27;;;;;;;9.82;33.92;99868.69;5070384;28;20573;-65
2022/03/15 08:57:08;;;;;;;16.45;10.88;;;;;;;9.92;33.76;99869.91;5072186;28;20377;-66
2022/03/15 08:59:34;;;;;;;22.02;13.05;;;;;;;10.00;33.58;99863.13;5073470;28;20099;-64
2022/03/15 09:02:01;;;;;;;23.33;13.93;;;;;;;10.03;33.61;99868.09;5072740;28;20025;-65
2022/03/15 09:04:26;;;;;;;22.35;11.65;;;;;;;10.09;33.85;99862.38;5068745;28;20055;-65
2022/03/15 09:06:52;;;;;;;21.58;11.18;;;;;;;10.16;34.20;99856.72;5070687;28;20680;-65
2022/03/15 09:09:21;;;;;;;20.40;10.82;;;;;;;10.18;34.13;99854.53;5072296;28;20028;-65
2022/03/15 09:11:47;;;;;;;17.33;10.68;;;;;;;10.19;34.47;99853.44;5071939;28;20028;-65
2022/03/15 09:14:14;;;;;;;19.30;11.90;;;;;;;10.18;33.89;99848.22;5071747;28;20024;-65
2022/03/15 09:16:40;;;;;;;17.02;11.27;;;;;;;10.18;34.13;99843.56;5071713;28;20029;-65
2022/03/15 09:19:06;;;;;;;18.65;10.65;;;;;;;10.23;34.31;99851.00;5069254;28;20563;-66
2022/03/15 09:21:32;;;;;;;21.85;11.60;;;;;;;10.27;34.56;99846.66;5074399;28;20019;-65
2022/03/15 09:23:57;;;;;;;17.33;10.25;;;;;;;10.37;34.37;99846.78;5071416;28;20020;-65
2022/03/15 09:26:24;;;;;;;23.13;13.43;;;;;;;10.49;33.91;99854.00;5064560;28;20041;-66
2022/03/15 09:28:50;;;;;;;23.15;13.85;;;;;;;10.50;33.75;99842.78;5069415;28;20369;-66
2022/03/15 09:31:16;;;;;;;21.90;12.48;;;;;;;10.60;34.15;99844.78;5070632;28;20043;-67
2022/03/15 09:33:43;;;;;;;23.80;14.50;;;;;;;10.67;34.19;99837.16;5070336;28;20382;-65
2022/03/15 09:36:09;;;;;;;20.83;12.27;;;;;;;10.72;33.60;99842.69;5071355;28;20102;-65
2022/03/15 09:38:35;;;;;;;25.67;14.75;;;;;;;10.79;33.84;99838.91;5075051;28;20036;-65
2022/03/15 09:41:03;;;;;;;19.02;11.13;;;;;;;10.93;33.82;99844.75;5071972;28;20037;-66
2022/03/15 09:43:38;;;;;;;17.50;10.73;;;;;;;11.01;34.26;99831.34;5072623;28;20475;-64
2022/03/15 09:46:08;;;;;;;22.65;12.00;;;;;;;11.09;33.89;99823.69;5070497;28;20510;-65
2022/03/15 09:48:34;;;;;;;21.65;12.10;;;;;;;11.13;33.28;99825.63;5066439;28;20362;-65
2022/03/15 09:51:04;;;;;;;24.13;13.07;;;;;;;11.19;33.25;99815.53;5071117;28;20067;-65
2022/03/15 09:53:31;;;;;;;;;;;;;;;11.27;33.48;99820.50;5068654;28;20052;-64
2022/03/15 09:55:56;;;;;;;25.80;13.50;;;;;;;11.32;34.30;99820.50;5071051;28;20407;-65
2022/03/15 09:58:22;;;;;;;26.08;14.25;;;;;;;11.42;33.12;99816.16;5070653;28;20119;-65
2022/03/15 10:00:53;;;;;;;25.95;14.23;;;;;;;11.52;33.49;99804.38;5072616;28;20025;-65
2022/03/15 10:03:19;;;;;;;22.15;12.77;;;;;;;11.56;33.34;99800.00;5068500;28;20050;-65
2022/03/15 10:05:49;;;;;;;24.55;12.80;;;;;;;11.60;33.09;99799.22;5069494;28;20024;-65
2022/03/15 10:08:15;;;;;;;20.95;13.40;;;;;;;11.64;33.72;99796.75;5069897;28;20021;-65
2022/03/15 10:10:42;;;;;;;23.75;13.35;;;;;;;11.69;33.59;99783.00;5070729;28;20038;-65
2022/03/15 10:13:08;;;;;;;22.35;13.18;;;;;;;11.70;32.98;99781.06;5071341;28;20024;-65
2022/03/15 10:15:34;;;;;;;22.75;13.25;;;;;;;11.71;33.31;99774.47;5070727;28;20028;-65
2022/03/15 10:18:06;;;;;;;22.58;13.23;;;;;;;11.75;33.40;99770.09;5070490;28;20456;-65
2022/03/15 10:20:42;;;;;;;24.45;14.57;;;;;;;11.88;33.82;99769.56;5071137;28;20560;-65
2022/03/15 10:23:12;;;;;;;34.22;20.23;;;;;;;11.99;32.92;99756.69;5071746;28;20032;-65
2022/03/15 10:25:41;;;;;;;23.23;14.23;;;;;;;12.10;34.03;99754.78;5072187;28;20086;-65
2022/03/15 10:28:08;;;;;;;22.90;12.77;;;;;;;12.19;33.43;99749.56;5069812;28;20025;-65
2022/03/15 10:30:35;;;;;;;19.98;11.98;;;;;;;12.24;33.57;99745.97;5069711;28;20400;-65
2022/03/15 10:33:02;;;;;;;18.70;11.98;;;;;;;12.30;33.60;99742.94;5069857;28;20127;-65
2022/03/15 10:35:30;;;;;;;21.75;11.85;;;;;;;12.42;33.96;99750.09;5070108;28;20077;-65
2022/03/15 10:37:57;;;;;;;20.23;11.88;;;;;;;12.49;33.77;99739.63;5066238;28;20033;-66
2022/03/15 10:40:40;;;;;;;17.13;12.35;;;;;;;12.62;32.95;99738.22;5066795;28;20027;-66
2022/03/15 10:43:08;;;;;;;18.15;11.68;;;;;;;12.66;33.54;99733.81;5068394;28;20024;-65
2022/03/15 10:45:35;;;;;;;17.38;11.05;;;;;;;12.80;33.25;99731.31;5068578;28;20024;-65
2022/03/15 10:48:02;;;;;;;19.38;11.43;;;;;;;12.88;33.00;99718.88;5069314;28;20052;-65
2022/03/15 10:50:30;;;;;;;19.23;11.45;;;;;;;12.94;32.89;99709.50;5063642;28;20028;-65
2022/03/15 10:52:55;;;;;;;17.27;11.40;;;;;;;13.02;32.93;99702.59;5068065;28;20526;-65
2022/03/15 10:55:28;;;;;;;19.60;11.65;;;;;;;13.09;32.88;99703.94;5068073;28;20052;-65
2022/03/15 10:57:59;;;;;;;17.23;11.20;;;;;;;13.18;32.98;99706.09;5068395;28;20437;-65
2022/03/15 11:00:27;;;;;;;15.57;11.50;;;;;;;13.23;32.78;99693.13;5068632;28;20021;-66
2022/03/15 11:02:54;;;;;;;17.33;11.55;;;;;;;13.27;32.22;99698.06;5068808;28;20542;-65
2022/03/15 11:05:30;;;;;;;20.35;11.98;;;;;;;13.23;32.67;99684.84;5068573;28;20035;-66
2022/03/15 11:07:56;;;;;;;21.38;12.95;;;;;;;13.23;31.93;99678.53;5069331;28;20056;-66
2022/03/15 11:10:23;;;;;;;56.95;27.55;;;;;;;13.28;32.79;99683.19;5069315;28;20445;-65
2022/03/15 11:12:58;;;;;;;20.52;12.70;;;;;;;13.42;32.59;99672.38;5069783;28;20025;-65
2022/03/15 11:15:28;;;;;;;21.80;12.27;;;;;;;13.55;32.64;99666.25;5069795;28;20037;-67
2022/03/15 11:18:00;;;;;;;19.85;11.35;;;;;;;13.74;32.80;99673.81;5069827;28;20033;-66
2022/03/15 11:20:27;;;;;;;18.80;11.70;;;;;;;13.86;32.56;99674.28;5069724;28;20042;-66
2022/03/15 11:22:57;;;;;;;16.05;10.10;;;;;;;13.95;32.38;99669.78;5068637;28;20044;-67